Time;durP1;ratioP1;P1;durP2;ratioP2;P2;SDS_P1;SDS_P2;PMS_P1;PMS_P2;Temp;Humidity;BMP_temperature;BMP_pressure;BME280_temperature;BME280_humidity;BME280_pressure;Samples;Min_cycle;Max_cycle;Signal;HPM_P1;HPM_P2
2024/03/05 00:01:21;;;;;;;40.8;25.6;;;;;;;9.29;89.45;97892.5;;;;
2024/03/05 00:12:20;;;;;;;40.8;25.6;;;;;;;9.19;90.04;97920;;;;
2024/03/05 00:22:20;;;;;;;40.8;25.6;;;;;;;9.24;90.3;97920;;;;
2024/03/05 00:33:20;;;;;;;36.9;25.3;;;;;;;9.38;89.95;97922.5;;;;
2024/03/05 00:44:20;;;;;;;36.9;25.3;;;;;;;9.3;89.59;97917.5;;;;
2024/03/05 00:55:20;;;;;;;36.9;25.3;;;;;;;9.11;90.13;97904;;;;
2024/03/05 01:05:20;;;;;;;45.7;26.9;;;;;;;9.1;90.28;97918;;;;
2024/03/05 01:16:20;;;;;;;45.7;26.9;;;;;;;9.23;89.81;97928;;;;
2024/03/05 01:27:21;;;;;;;45.7;26.9;;;;;;;9.3;89.56;97938;;;;
2024/03/05 01:37:20;;;;;;;35.3;24.2;;;;;;;9.41;89.49;97940;;;;
2024/03/05 01:47:20;;;;;;;35.3;24.2;;;;;;;9.42;88.95;97942;;;;
2024/03/05 01:58:20;;;;;;;35.3;24.2;;;;;;;9.28;89.33;97958.333333333;;;;
2024/03/05 02:08:21;;;;;;;34.7;22.5;;;;;;;9.27;89.04;97955;;;;
2024/03/05 02:19:20;;;;;;;34.7;22.5;;;;;;;9.15;90.06;97951.666666667;;;;
2024/03/05 02:29:20;;;;;;;34.7;22.5;;;;;;;9.37;89.93;97934;;;;
2024/03/05 02:39:22;;;;;;;30.8;20.5;;;;;;;9.42;89.4;97946.666666667;;;;
2024/03/05 02:49:20;;;;;;;30.8;20.5;;;;;;;9.39;89;97953.333333333;;;;
2024/03/05 02:59:20;;;;;;;30.8;20.5;;;;;;;9.21;89.5;97960;;;;
2024/03/05 03:10:20;;;;;;;35.5;22.8;;;;;;;9.2;89.34;97970;;;;
2024/03/05 03:20:21;;;;;;;35.5;22.8;;;;;;;9.31;89.4;97975;;;;
2024/03/05 03:31:20;;;;;;;47;26.4;;;;;;;9.28;88.95;97986.666666667;;;;
2024/03/05 03:42:22;;;;;;;47;26.4;;;;;;;9.15;89.43;97988.333333333;;;;
2024/03/05 03:52:20;;;;;;;47;26.4;;;;;;;9.03;90.07;98006.666666667;;;;
2024/03/05 04:02:21;;;;;;;41.3;23.4;;;;;;;8.8;90.25;98005;;;;
2024/03/05 04:12:20;;;;;;;41.3;23.4;;;;;;;8.87;90.31;98015;;;;
2024/03/05 04:22:20;;;;;;;41.3;23.4;;;;;;;8.62;90.92;98010;;;;
2024/03/05 04:33:20;;;;;;;34.7;22.3;;;;;;;8.31;91.26;98018.333333333;;;;
2024/03/05 04:43:20;;;;;;;34.7;22.3;;;;;;;8.28;90.96;98030;;;;
2024/03/05 04:53:20;;;;;;;34.7;22.3;;;;;;;8.18;90.23;98041.666666667;;;;
2024/03/05 05:04:20;;;;;;;23.6;14.1;;;;;;;8.08;90.13;98055;;;;
2024/03/05 05:15:20;;;;;;;23.6;14.1;;;;;;;7.82;89.75;98061.666666667;;;;
2024/03/05 05:26:20;;;;;;;23.6;14.1;;;;;;;7.72;89.81;98071.666666667;;;;
2024/03/05 05:36:20;;;;;;;23;12.4;;;;;;;7.71;90.07;98091.666666667;;;;
2024/03/05 05:47:20;;;;;;;23;12.4;;;;;;;7.66;89.57;98103.333333333;;;;
2024/03/05 05:57:20;;;;;;;23;12.4;;;;;;;7.5;90.09;98115;;;;
2024/03/05 06:07:24;;;;;;;15.9;9.1;;;;;;;7.69;90.45;98121.666666667;;;;
2024/03/05 06:18:20;;;;;;;15.9;9.1;;;;;;;7.89;89.92;98138.333333333;;;;
2024/03/05 06:29:20;;;;;;;15.9;9.1;;;;;;;7.96;89.62;98153.333333333;;;;
2024/03/05 06:39:29;;;;;;;15.2;8.2;;;;;;;8.05;89.56;98166.666666667;;;;
2024/03/05 06:50:23;;;;;;;15.2;8.2;;;;;;;8.16;89.22;98170;;;;
2024/03/05 07:01:20;;;;;;;11.9;6.6;;;;;;;8.11;88.66;98186;;;;
2024/03/05 07:11:20;;;;;;;11.9;6.6;;;;;;;7.73;89.82;98204;;;;
2024/03/05 07:22:20;;;;;;;11.9;6.6;;;;;;;7.68;90.09;98214;;;;
2024/03/05 07:32:20;;;;;;;10.9;5.8;;;;;;;7.77;89.47;98218;;;;
2024/03/05 07:43:21;;;;;;;10.9;5.8;;;;;;;7.66;88.6;98224;;;;
2024/03/05 07:54:20;;;;;;;10.9;5.8;;;;;;;7.81;88.89;98236;;;;
2024/03/05 08:05:21;;;;;;;10.1;5.7;;;;;;;8.04;88.54;98246;;;;
2024/03/05 08:15:20;;;;;;;10.1;5.7;;;;;;;8.04;88.08;98256;;;;
2024/03/05 08:26:20;;;;;;;10.1;5.7;;;;;;;8.02;87.82;98264;;;;
2024/03/05 08:37:22;;;;;;;8.2;4.4;;;;;;;8.09;87.86;98274;;;;
2024/03/05 08:47:21;;;;;;;8.2;4.4;;;;;;;8.28;87.41;98286;;;;
2024/03/05 08:58:20;;;;;;;8.2;4.4;;;;;;;8.27;86.26;98296;;;;
2024/03/05 09:09:20;;;;;;;10.1;4.1;;;;;;;8.48;85.86;98312;;;;
2024/03/05 09:19:21;;;;;;;10.1;4.1;;;;;;;8.47;85.37;98318;;;;
2024/03/05 09:30:20;;;;;;;9.2;5.4;;;;;;;8.49;85.14;98330;;;;
2024/03/05 09:41:20;;;;;;;9.2;5.4;;;;;;;8.51;84.86;98340;;;;
2024/03/05 09:51:20;;;;;;;9.2;5.4;;;;;;;8.37;85.49;98350;;;;
2024/03/05 10:02:22;;;;;;;12;7.3;;;;;;;8.43;85.63;98364;;;;
2024/03/05 10:12:20;;;;;;;12;7.3;;;;;;;8.47;84.99;98374;;;;
2024/03/05 10:22:21;;;;;;;12;7.3;;;;;;;8.62;84.75;98372;;;;
2024/03/05 10:32:25;;;;;;;18.2;10.5;;;;;;;8.54;83.93;98368;;;;
2024/03/05 10:42:20;;;;;;;18.2;10.5;;;;;;;8.39;84.43;98368;;;;
2024/03/05 10:53:20;;;;;;;18.2;10.5;;;;;;;8.52;84.76;98384;;;;
2024/03/05 11:04:20;;;;;;;29.4;17.2;;;;;;;8.43;84.49;98386;;;;
2024/03/05 11:14:21;;;;;;;29.4;17.2;;;;;;;8.51;84.3;98382.5;;;;
2024/03/05 11:25:20;;;;;;;29.4;17.2;;;;;;;8.54;82.21;98385;;;;
2024/03/05 11:36:20;;;;;;;23.1;13.6;;;;;;;8.47;82.65;98385;;;;
2024/03/05 11:46:20;;;;;;;23.1;13.6;;;;;;;8.43;83.03;98390;;;;
2024/03/05 11:57:20;;;;;;;23.1;13.6;;;;;;;8.57;82.35;98390;;;;
2024/03/05 12:08:20;;;;;;;26.8;14.6;;;;;;;8.82;81.79;98390;;;;
2024/03/05 12:18:20;;;;;;;26.8;14.6;;;;;;;9.18;80.99;98396;;;;
2024/03/05 12:29:20;;;;;;;21.5;13.7;;;;;;;9.39;80.34;98408;;;;
2024/03/05 12:40:20;;;;;;;21.5;13.7;;;;;;;9.94;78.5;98408;;;;
2024/03/05 12:51:20;;;;;;;21.5;13.7;;;;;;;10.3;75.94;98416.666666667;;;;
2024/03/05 13:02:20;;;;;;;21.1;14.9;;;;;;;10.81;73.81;98406.666666667;;;;
2024/03/05 13:12:20;;;;;;;21.1;14.9;;;;;;;10.72;75.07;98410;;;;
2024/03/05 13:23:20;;;;;;;21.1;14.9;;;;;;;10.58;74.02;98416.666666667;;;;
2024/03/05 13:33:23;;;;;;;28.9;21;;;;;;;10.32;75.09;98426.666666667;;;;
2024/03/05 13:43:22;;;;;;;28.9;21;;;;;;;10.22;75.68;98436.666666667;;;;
2024/03/05 13:54:20;;;;;;;28.9;21;;;;;;;9.9;74.92;98446.666666667;;;;
2024/03/05 14:05:21;;;;;;;25.1;16.4;;;;;;;9.42;76.05;98457.5;;;;
2024/03/05 14:16:21;;;;;;;25.1;16.4;;;;;;;8.99;78.04;98470;;;;
2024/03/05 14:26:20;;;;;;;25.1;16.4;;;;;;;8.78;78.75;98485;;;;
2024/03/05 14:36:21;;;;;;;24.8;12.7;;;;;;;8.71;79.34;98487.5;;;;
2024/03/05 14:47:20;;;;;;;24.8;12.7;;;;;;;8.69;79.77;98497.5;;;;
2024/03/05 14:58:20;;;;;;;24.8;12.7;;;;;;;8.66;80.27;98505;;;;
2024/03/05 15:09:20;;;;;;;22.7;13.5;;;;;;;8.76;80.18;98520;;;;
2024/03/05 15:19:20;;;;;;;22.7;13.5;;;;;;;8.77;79.92;98535;;;;
2024/03/05 15:30:20;;;;;;;20.6;11.5;;;;;;;8.88;80.5;98552.5;;;;
2024/03/05 15:40:22;;;;;;;20.6;11.5;;;;;;;8.97;80.69;98558;;;;
2024/03/05 15:51:20;;;;;;;20.6;11.5;;;;;;;8.9;80.08;98577.5;;;;
2024/03/05 16:02:23;;;;;;;23.2;13.6;;;;;;;8.88;79.7;98592.5;;;;
2024/03/05 16:12:23;;;;;;;23.2;13.6;;;;;;;8.87;80.8;98600;;;;
2024/03/05 16:23:20;;;;;;;23.2;13.6;;;;;;;8.8;81.29;98615;;;;
2024/03/05 16:33:20;;;;;;;25.5;14.8;;;;;;;8.78;81.5;98628;;;;
2024/03/05 16:44:22;;;;;;;25.5;14.8;;;;;;;8.38;82.02;98630;;;;
2024/03/05 16:55:22;;;;;;;25.5;14.8;;;;;;;7.86;83.62;98632.5;;;;
2024/03/05 17:06:22;;;;;;;46.3;24.6;;;;;;;7.7;84.44;98648;;;;
2024/03/05 17:16:20;;;;;;;46.3;24.6;;;;;;;7.77;84.06;98660;;;;
2024/03/05 17:27:20;;;;;;;46.3;24.6;;;;;;;7.88;83.5;98675;;;;
2024/03/05 17:37:21;;;;;;;31.7;19.9;;;;;;;7.81;83.43;98677.5;;;;
2024/03/05 17:48:21;;;;;;;31.7;19.9;;;;;;;7.57;84.08;98677.5;;;;
2024/03/05 17:59:20;;;;;;;28.1;15.6;;;;;;;7.61;83.96;98680;;;;
2024/03/05 18:09:21;;;;;;;28.1;15.6;;;;;;;7.5;84.44;98695;;;;
2024/03/05 18:20:21;;;;;;;28.1;15.6;;;;;;;7.5;84.02;98707.5;;;;
2024/03/05 18:31:22;;;;;;;27.2;17;;;;;;;7.3;84.71;98722.5;;;;
2024/03/05 18:41:21;;;;;;;27.2;17;;;;;;;7.14;85.35;98722;;;;
2024/03/05 18:52:20;;;;;;;27.2;17;;;;;;;6.99;85.64;98736;;;;
2024/03/05 19:03:20;;;;;;;33.8;20.4;;;;;;;6.93;85.96;98748;;;;
2024/03/05 19:13:21;;;;;;;33.8;20.4;;;;;;;7.09;85.41;98750;;;;
2024/03/05 19:24:21;;;;;;;33.8;20.4;;;;;;;7.1;85.33;98754;;;;
2024/03/05 19:35:24;;;;;;;29.2;17.6;;;;;;;7.09;85.05;98744;;;;
2024/03/05 19:45:21;;;;;;;29.2;17.6;;;;;;;7.1;84.55;98758.333333333;;;;
2024/03/05 19:56:20;;;;;;;29.2;17.6;;;;;;;6.98;84.89;98752;;;;
2024/03/05 20:06:21;;;;;;;41.9;21.4;;;;;;;6.98;84.84;98763.333333333;;;;
2024/03/05 20:16:21;;;;;;;41.9;21.4;;;;;;;6.98;84.71;98761.666666667;;;;
2024/03/05 20:27:21;;;;;;;41.9;21.4;;;;;;;6.64;85.28;98748.333333333;;;;
2024/03/05 20:37:21;;;;;;;29.6;17.5;;;;;;;6.29;85.63;98748.333333333;;;;
2024/03/05 20:48:21;;;;;;;29.6;17.5;;;;;;;6.04;85.54;98758.333333333;;;;
2024/03/05 20:59:21;;;;;;;26.3;15.9;;;;;;;5.67;85.25;98761.666666667;;;;
2024/03/05 21:09:21;;;;;;;26.3;15.9;;;;;;;5.39;85.56;98780;;;;
2024/03/05 21:19:23;;;;;;;26.3;15.9;;;;;;;5.11;85.27;98786.666666667;;;;
2024/03/05 21:29:21;;;;;;;26.9;15.3;;;;;;;4.76;85.47;98791.666666667;;;;
2024/03/05 21:40:21;;;;;;;26.9;15.3;;;;;;;4.43;86.41;98796.666666667;;;;
2024/03/05 21:50:21;;;;;;;26.9;15.3;;;;;;;4.32;87.05;98800;;;;
2024/03/05 22:00:21;;;;;;;25.5;14.5;;;;;;;4.33;87.94;98811.666666667;;;;
2024/03/05 22:10:21;;;;;;;25.5;14.5;;;;;;;4.53;88.5;98815;;;;
2024/03/05 22:21:21;;;;;;;25.5;14.5;;;;;;;4.72;88.78;98808.333333333;;;;
2024/03/05 22:32:21;;;;;;;30.6;17.3;;;;;;;4.85;88.8;98810;;;;
2024/03/05 22:43:22;;;;;;;30.6;17.3;;;;;;;5.08;88.8;98823.333333333;;;;
2024/03/05 22:53:22;;;;;;;30.6;17.3;;;;;;;5.15;88.99;98828.333333333;;;;
2024/03/05 23:03:21;;;;;;;32.9;18.6;;;;;;;5.15;88.29;98836.666666667;;;;
2024/03/05 23:13:21;;;;;;;32.9;18.6;;;;;;;5.1;87.91;98848.333333333;;;;
2024/03/05 23:24:21;;;;;;;32.9;18.6;;;;;;;5.09;87.8;98846.666666667;;;;
2024/03/05 23:34:21;;;;;;;26;14.3;;;;;;;4.8;87.19;98848.333333333;;;;
2024/03/05 23:45:21;;;;;;;26;14.3;;;;;;;4.43;86.83;98855;;;;
2024/03/05 23:56:21;;;;;;;26;14.3;;;;;;;4.03;86.97;98858.333333333;;;;
